Strona główna
Zdjęcia satelitarne 10-dni prognozyKlimatMeteorologia morska Cyklony Błyskawica LotniskoFAQ Gazetka O
Pogoda : Europa Afryka Ameryka Północna Ameryka Południowa Azja Australia-Oceania Inny
Języki Kontakt

Katowice, Polska

Pyrzowice

Szerokość geograficzna: 50-28-27N, Długość geograficzna: 019-04-48E, wysokość: 284 m


METAR: EPKT 291400Z 21009KT 9999 SCT017 SCT042 01/M02 Q0994
TAF: EPKT 291130Z 2912/2921 22010KT 9999 SCT020

czas: 15:19 (14:19 UTC)

Aktualna obserwacja pogody

Raport powstał 19 minut temu, godzina 14:00 UTC
Wiatr 9 kt od południowo-południowy zachód
Temperatura 1°C
Wilgotność 80%
Ciśnienie 994 hPa
Widzialność 10 km lub więcej
Rozproszone chmury na wysokości 1700 ft
Rozproszone chmury na wysokości 4200 ft

Jednostka miary

Prognoza

Raport powstał 2 godziny i 49 minut temu, godzina 11:30 UTC
Prognoza ważna od 29 godzina 12 UTC do 29 godzina 21 UTC
Wiatr 10 kt od południowy zachód
Widzialność 10 km lub więcej
Rozproszone chmury na wysokości 2000 ft
Informacje na tej stronie internetowej podlegają klauzuli o wyłączeniu odpowiedzialności
Pogoda : Europa Afryka Ameryka Północna Ameryka Południowa Azja Australia-Oceania Inny
Zdjęcia satelitarne 10-dni prognozyKlimatMeteorologia morska Cyklony Błyskawica LotniskoFAQ Języki Kontakt Gazetka O